Time;durP1;ratioP1;P1;durP2;ratioP2;P2;SDS_P1;SDS_P2;PMS_P1;PMS_P2;Temp;Humidity;BMP_temperature;BMP_pressure;BME280_temperature;BME280_humidity;BME280_pressure;Samples;Min_cycle;Max_cycle;Signal;HPM_P1;HPM_P2
2021/03/29 00:02:08;;;;;;;11.00;3.40;;;;;;;;;;6231643;23;20207;-88
2021/03/29 00:05:15;;;;;;;11.03;3.90;;;;;;;;;;6219669;23;20203;-88
2021/03/29 00:08:22;;;;;;;9.53;3.47;;;;;;;;;;6220379;23;20310;-89
2021/03/29 00:11:27;;;;;;;12.90;3.90;;;;;;;;;;6220493;23;20166;-87
2021/03/29 00:14:31;;;;;;;12.17;3.47;;;;;;;;;;6221661;23;20215;-89
2021/03/29 00:17:38;;;;;;;10.03;3.73;;;;;;;;;;6220947;23;20171;-89
2021/03/29 00:20:44;;;;;;;8.27;3.27;;;;;;;;;;6219686;23;20175;-89
2021/03/29 00:23:49;;;;;;;10.70;3.63;;;;;;;;;;6220313;23;20166;-89
2021/03/29 00:26:54;;;;;;;6.90;3.60;;;;;;;;;;6219496;23;20420;-88
2021/03/29 00:29:58;;;;;;;11.93;3.73;;;;;;;;;;6220326;23;20171;-87
2021/03/29 00:33:05;;;;;;;9.87;3.60;;;;;;;;;;6220929;23;20202;-88
2021/03/29 00:36:10;;;;;;;8.53;3.70;;;;;;;;;;6220495;23;20214;-89
2021/03/29 00:39:15;;;;;;;12.70;3.90;;;;;;;;;;6219688;23;20174;-90
2021/03/29 00:42:20;;;;;;;9.33;3.50;;;;;;;;;;6219522;23;20896;-87
2021/03/29 00:45:25;;;;;;;7.80;3.77;;;;;;;;;;6218852;23;20555;-88
2021/03/29 00:48:30;;;;;;;12.97;4.00;;;;;;;;;;6218657;23;20170;-87
2021/03/29 00:51:36;;;;;;;9.87;3.80;;;;;;;;;;6219613;23;20186;-86
2021/03/29 00:54:45;;;;;;;11.23;3.73;;;;;;;;;;6219862;23;20179;-89
2021/03/29 00:57:49;;;;;;;11.40;4.10;;;;;;;;;;6219660;23;20175;-88
2021/03/29 01:00:55;;;;;;;11.93;4.13;;;;;;;;;;6220232;23;20195;-87
2021/03/29 01:04:00;;;;;;;10.77;3.60;;;;;;;;;;6219320;23;20215;-87
2021/03/29 01:07:06;;;;;;;11.10;3.47;;;;;;;;;;6218724;23;20214;-89
2021/03/29 01:10:11;;;;;;;9.17;3.97;;;;;;;;;;6202463;23;20247;-86
2021/03/29 01:13:17;;;;;;;9.47;3.50;;;;;;;;;;6220878;23;20240;-88
2021/03/29 01:16:24;;;;;;;10.37;3.60;;;;;;;;;;6219650;23;20590;-88
2021/03/29 01:19:38;;;;;;;10.67;4.23;;;;;;;;;;6220295;23;20182;-89
2021/03/29 01:22:47;;;;;;;12.23;3.97;;;;;;;;;;6220320;23;20194;-86
2021/03/29 01:25:55;;;;;;;10.73;3.57;;;;;;;;;;6219657;23;20236;-89
2021/03/29 01:29:01;;;;;;;13.37;3.50;;;;;;;;;;6219257;23;20542;-88
2021/03/29 01:32:07;;;;;;;9.73;3.43;;;;;;;;;;6220127;23;20214;-88
2021/03/29 01:35:13;;;;;;;12.07;4.10;;;;;;;;;;6220023;23;20168;-88
2021/03/29 01:38:17;;;;;;;17.23;4.17;;;;;;;;;;6219166;23;20543;-89
2021/03/29 01:41:22;;;;;;;11.27;3.60;;;;;;;;;;6219031;23;20545;-88
2021/03/29 01:44:28;;;;;;;11.27;3.70;;;;;;;;;;6202916;23;20198;-87
2021/03/29 01:47:33;;;;;;;10.37;3.80;;;;;;;;;;6202018;23;20198;-89
2021/03/29 01:50:38;;;;;;;16.50;4.20;;;;;;;;;;6219312;23;20251;-88
2021/03/29 01:53:43;;;;;;;17.93;3.80;;;;;;;;;;6220534;23;20191;-87
2021/03/29 01:56:48;;;;;;;11.60;3.80;;;;;;;;;;6219309;23;20191;-87
2021/03/29 01:59:53;;;;;;;10.00;3.80;;;;;;;;;;6219940;23;20607;-88
2021/03/29 02:02:58;;;;;;;11.00;4.00;;;;;;;;;;6188756;23;20191;-88
2021/03/29 02:06:04;;;;;;;11.27;4.13;;;;;;;;;;6171583;23;20171;-87
2021/03/29 02:09:10;;;;;;;15.33;3.90;;;;;;;;;;6190388;23;20252;-90
2021/03/29 02:12:14;;;;;;;9.27;3.47;;;;;;;;;;6172854;23;20163;-88
2021/03/29 02:15:22;;;;;;;11.23;3.53;;;;;;;;;;6171432;23;20175;-86
2021/03/29 02:18:28;;;;;;;9.50;3.40;;;;;;;;;;6171655;23;20195;-87
2021/03/29 02:21:34;;;;;;;9.40;3.57;;;;;;;;;;6172343;23;20172;-90
2021/03/29 02:24:40;;;;;;;12.07;3.80;;;;;;;;;;6172623;23;20172;-88
2021/03/29 02:27:47;;;;;;;12.83;3.87;;;;;;;;;;6173207;23;20171;-87
2021/03/29 02:30:52;;;;;;;11.37;3.97;;;;;;;;;;6172870;23;20167;-90
2021/03/29 02:33:58;;;;;;;11.10;4.10;;;;;;;;;;6174444;23;20167;-88
2021/03/29 02:37:03;;;;;;;13.43;4.27;;;;;;;;;;6172614;23;20216;-89
2021/03/29 02:40:08;;;;;;;8.13;3.73;;;;;;;;;;6172795;23;20172;-88
2021/03/29 02:43:13;;;;;;;13.03;4.70;;;;;;;;;;6171063;23;20195;-87
2021/03/29 02:46:19;;;;;;;14.80;4.43;;;;;;;;;;6173365;23;20507;-87
2021/03/29 02:49:23;;;;;;;9.30;4.00;;;;;;;;;;6172442;23;20196;-87
2021/03/29 02:52:28;;;;;;;13.20;4.30;;;;;;;;;;6192544;23;20215;-90
2021/03/29 02:55:33;;;;;;;10.20;4.33;;;;;;;;;;6173902;23;20180;-89
2021/03/29 02:58:38;;;;;;;10.20;4.53;;;;;;;;;;6173956;23;20175;-87
2021/03/29 03:01:44;;;;;;;13.53;5.30;;;;;;;;;;6172916;23;20215;-89
2021/03/29 03:04:49;;;;;;;13.77;5.73;;;;;;;;;;6173258;23;20192;-88
2021/03/29 03:07:54;;;;;;;14.43;5.60;;;;;;;;;;6174027;23;20195;-90
2021/03/29 03:10:58;;;;;;;15.73;5.73;;;;;;;;;;6192018;23;20171;-86
2021/03/29 03:14:04;;;;;;;12.83;5.80;;;;;;;;;;6174517;23;20200;-89
2021/03/29 03:17:09;;;;;;;12.63;5.27;;;;;;;;;;6174183;23;20256;-89
2021/03/29 03:20:14;;;;;;;21.07;7.90;;;;;;;;;;6173481;23;20243;-88
2021/03/29 03:23:20;;;;;;;25.40;6.40;;;;;;;;;;6173880;23;20526;-89
2021/03/29 03:26:25;;;;;;;21.97;5.73;;;;;;;;;;6172575;23;20175;-89
2021/03/29 03:29:29;;;;;;;17.53;4.93;;;;;;;;;;6172123;23;20175;-88
2021/03/29 03:32:34;;;;;;;8.83;3.80;;;;;;;;;;6173278;23;20171;-88
2021/03/29 03:35:39;;;;;;;18.43;4.50;;;;;;;;;;6172491;23;20256;-89
2021/03/29 03:38:45;;;;;;;14.07;4.07;;;;;;;;;;6173427;23;20172;-88
2021/03/29 03:41:49;;;;;;;16.20;5.70;;;;;;;;;;6173011;23;20235;-87
2021/03/29 03:44:55;;;;;;;16.20;5.77;;;;;;;;;;6173216;23;20191;-90
2021/03/29 03:48:01;;;;;;;15.20;4.90;;;;;;;;;;6172673;23;20175;-87
2021/03/29 03:51:06;;;;;;;17.07;5.10;;;;;;;;;;6173914;23;20176;-86
2021/03/29 03:54:11;;;;;;;14.50;4.83;;;;;;;;;;6173427;23;20627;-88
2021/03/29 03:57:15;;;;;;;12.53;5.13;;;;;;;;;;6172514;23;20241;-88
2021/03/29 04:00:21;;;;;;;11.33;4.47;;;;;;;;;;6175473;23;20175;-89
2021/03/29 04:03:28;;;;;;;14.37;4.70;;;;;;;;;;6201365;23;20195;-87
2021/03/29 04:06:32;;;;;;;14.27;4.80;;;;;;;;;;6221600;23;20614;-88
2021/03/29 04:09:41;;;;;;;17.83;4.63;;;;;;;;;;6221355;23;20623;-90
2021/03/29 04:12:50;;;;;;;14.53;4.40;;;;;;;;;;6221692;23;20174;-87
2021/03/29 04:15:55;;;;;;;10.83;4.00;;;;;;;;;;6219515;23;20175;-89
2021/03/29 04:19:00;;;;;;;11.47;4.40;;;;;;;;;;6219925;23;20214;-89
2021/03/29 04:22:05;;;;;;;15.47;4.47;;;;;;;;;;6220038;23;20174;-88
2021/03/29 04:25:11;;;;;;;18.13;4.50;;;;;;;;;;6221698;23;20212;-87
2021/03/29 04:28:16;;;;;;;11.53;3.87;;;;;;;;;;6222694;23;20270;-88
2021/03/29 04:31:21;;;;;;;14.77;4.40;;;;;;;;;;6221437;23;20178;-88
2021/03/29 04:34:26;;;;;;;12.50;4.27;;;;;;;;;;6223931;23;20162;-88
2021/03/29 04:37:30;;;;;;;16.87;4.20;;;;;;;;;;6221911;23;20218;-88
2021/03/29 04:40:35;;;;;;;11.27;4.67;;;;;;;;;;6220615;23;20171;-89
2021/03/29 04:43:39;;;;;;;12.43;4.67;;;;;;;;;;6222167;23;20260;-87
2021/03/29 04:46:44;;;;;;;11.23;4.23;;;;;;;;;;6221172;23;20171;-86
2021/03/29 04:49:50;;;;;;;15.63;4.50;;;;;;;;;;6221559;23;20282;-87
2021/03/29 04:52:55;;;;;;;11.93;4.13;;;;;;;;;;6204388;23;20216;-88
2021/03/29 04:55:59;;;;;;;13.70;4.73;;;;;;;;;;6221666;23;20167;-88
2021/03/29 04:59:04;;;;;;;8.53;4.47;;;;;;;;;;6220942;23;20255;-89
2021/03/29 05:02:09;;;;;;;11.47;4.97;;;;;;;;;;6232690;23;20283;-90
2021/03/29 05:05:14;;;;;;;20.60;4.73;;;;;;;;;;6221479;23;20230;-88
2021/03/29 05:08:19;;;;;;;10.97;4.40;;;;;;;;;;6221106;23;20200;-86
2021/03/29 05:11:24;;;;;;;10.80;4.20;;;;;;;;;;6222637;23;20214;-86
2021/03/29 05:14:28;;;;;;;15.50;4.73;;;;;;;;;;6221383;23;20163;-89
2021/03/29 05:17:32;;;;;;;20.25;7.45;;;;;;;;;;6219696;23;20413;-88
2021/03/29 05:20:38;;;;;;;14.10;4.83;;;;;;;;;;6219379;23;20166;-88
2021/03/29 05:23:42;;;;;;;25.03;4.70;;;;;;;;;;6223134;23;20314;-86
2021/03/29 05:26:46;;;;;;;21.37;4.30;;;;;;;;;;6223180;23;20222;-88
2021/03/29 05:29:52;;;;;;;14.97;4.73;;;;;;;;;;6222368;23;20175;-88
2021/03/29 05:32:58;;;;;;;14.47;4.90;;;;;;;;;;6241028;23;20547;-87
2021/03/29 05:36:06;;;;;;;14.87;4.60;;;;;;;;;;6239443;23;20547;-89
2021/03/29 05:39:11;;;;;;;15.67;4.50;;;;;;;;;;6223386;23;20178;-88
2021/03/29 05:42:16;;;;;;;15.23;4.47;;;;;;;;;;6224941;23;20246;-86
2021/03/29 05:45:20;;;;;;;19.27;8.63;;;;;;;;;;6241530;23;20179;-87
2021/03/29 05:48:25;;;;;;;18.70;5.40;;;;;;;;;;6224153;23;20237;-88
2021/03/29 05:51:31;;;;;;;20.23;6.70;;;;;;;;;;6221290;23;20223;-89
2021/03/29 05:54:35;;;;;;;20.77;5.27;;;;;;;;;;6219494;23;20163;-89
2021/03/29 05:57:53;;;;;;;14.23;4.47;;;;;;;;;;6220704;23;20171;-87
2021/03/29 06:00:58;;;;;;;14.30;5.40;;;;;;;;;;6221948;23;20187;-86
2021/03/29 06:04:02;;;;;;;12.63;5.37;;;;;;;;;;6204743;23;20211;-87
2021/03/29 06:07:11;;;;;;;18.63;6.80;;;;;;;;;;6222707;23;20167;-88
2021/03/29 06:10:16;;;;;;;18.30;5.57;;;;;;;;;;6222448;23;20618;-89
2021/03/29 06:13:21;;;;;;;9.40;4.57;;;;;;;;;;6220216;23;20171;-90
2021/03/29 06:16:26;;;;;;;14.50;4.53;;;;;;;;;;6223385;23;20171;-88
2021/03/29 06:19:38;;;;;;;12.37;5.07;;;;;;;;;;6223552;23;20171;-87
2021/03/29 06:22:43;;;;;;;14.73;5.53;;;;;;;;;;6224258;23;20194;-90
2021/03/29 06:25:48;;;;;;;20.40;4.87;;;;;;;;;;6205288;23;20488;-88
2021/03/29 06:28:53;;;;;;;15.57;5.53;;;;;;;;;;6223731;23;20187;-89
2021/03/29 06:31:58;;;;;;;12.63;5.33;;;;;;;;;;6224723;23;20198;-88
2021/03/29 06:35:14;;;;;;;12.63;4.97;;;;;;;;;;6223617;23;20167;-87
2021/03/29 06:38:21;;;;;;;11.50;4.10;;;;;;;;;;6225107;23;20166;-89
2021/03/29 06:41:26;;;;;;;11.30;4.63;;;;;;;;;;6223211;23;20167;-89
2021/03/29 06:44:31;;;;;;;15.07;5.10;;;;;;;;;;6225470;23;20623;-89
2021/03/29 06:47:35;;;;;;;15.47;4.60;;;;;;;;;;6221868;23;20218;-87
2021/03/29 06:50:40;;;;;;;17.37;4.60;;;;;;;;;;6223365;23;20162;-88
2021/03/29 06:53:47;;;;;;;13.43;4.70;;;;;;;;;;6222494;23;20219;-91
2021/03/29 06:56:53;;;;;;;16.80;5.00;;;;;;;;;;6224487;23;20186;-87
2021/03/29 06:59:58;;;;;;;19.17;4.67;;;;;;;;;;6211418;23;20175;-86
2021/03/29 07:03:03;;;;;;;11.53;4.67;;;;;;;;;;6192307;23;20191;-88
2021/03/29 07:06:08;;;;;;;12.77;4.20;;;;;;;;;;6175242;23;20506;-89
2021/03/29 07:09:14;;;;;;;11.37;4.70;;;;;;;;;;6178242;23;20223;-88
2021/03/29 07:12:19;;;;;;;12.53;4.43;;;;;;;;;;6175788;23;20168;-90
2021/03/29 07:15:24;;;;;;;13.53;4.20;;;;;;;;;;6193069;23;20300;-89
2021/03/29 07:18:29;;;;;;;11.60;4.70;;;;;;;;;;6175620;23;20176;-89
2021/03/29 07:21:37;;;;;;;18.93;4.73;;;;;;;;;;6191573;23;20167;-89
2021/03/29 07:24:42;;;;;;;14.43;4.20;;;;;;;;;;6174836;23;20167;-88
2021/03/29 07:27:49;;;;;;;11.10;4.40;;;;;;;;;;6193450;23;20187;-88
2021/03/29 07:30:54;;;;;;;12.73;4.47;;;;;;;;;;6193256;23;20168;-88
2021/03/29 07:34:01;;;;;;;20.33;4.60;;;;;;;;;;6185447;22;20212;-87
2021/03/29 07:37:25;;;;;;;12.13;4.30;;;;;;;;;;6183031;23;20341;-89
2021/03/29 07:40:58;;;;;;;13.87;4.30;;;;;;;;;;6188026;23;20172;-87
2021/03/29 07:44:14;;;;;;;19.37;4.63;;;;;;;;;;6178031;22;20199;-87
2021/03/29 07:47:33;;;;;;;11.83;4.57;;;;;;;;;;6195136;23;20254;-89
2021/03/29 07:50:49;;;;;;;10.17;4.30;;;;;;;;;;6177184;23;20234;-87
2021/03/29 07:54:00;;;;;;;13.93;4.70;;;;;;;;;;6195532;23;20212;-89
2021/03/29 07:57:04;;;;;;;14.47;4.63;;;;;;;;;;6175429;23;20961;-89
2021/03/29 08:00:10;;;;;;;10.43;4.67;;;;;;;;;;6198216;23;20171;-86
2021/03/29 08:03:37;;;;;;;15.70;5.20;;;;;;;;;;6195072;23;20192;-88
2021/03/29 08:06:46;;;;;;;13.87;4.43;;;;;;;;;;6174160;23;20482;-88
2021/03/29 08:09:51;;;;;;;11.38;4.30;;;;;;;;;;6195259;22;20215;-87
2021/03/29 14:12:50;;;;;;;8.57;3.30;;;;;;;;;;6173093;22;20211;-88
2021/03/29 14:15:55;;;;;;;8.63;3.15;;;;;;;;;;6228536;23;20203;-90
2021/03/29 14:19:01;;;;;;;9.95;3.22;;;;;;;;;;6212279;23;20171;-90
2021/03/29 14:22:07;;;;;;;6.75;2.90;;;;;;;;;;6228556;23;20171;-87
2021/03/29 14:25:12;;;;;;;9.63;3.67;;;;;;;;;;6213911;23;20164;-89
2021/03/29 14:28:18;;;;;;;12.18;3.65;;;;;;;;;;6232069;23;20171;-90
2021/03/29 14:31:23;;;;;;;8.77;3.08;;;;;;;;;;6228883;23;20171;-90
2021/03/29 14:34:27;;;;;;;15.23;2.92;;;;;;;;;;6228482;23;20194;-90
2021/03/29 14:37:52;;;;;;;9.57;3.63;;;;;;;;;;6228127;23;20218;-89
2021/03/29 14:41:06;;;;;;;9.50;3.30;;;;;;;;;;6228993;23;20230;-89
2021/03/29 14:44:32;;;;;;;6.65;2.70;;;;;;;;;;6195424;23;20191;-89
2021/03/29 14:47:37;;;;;;;9.07;3.10;;;;;;;;;;6232791;23;20250;-90
2021/03/29 14:50:42;;;;;;;9.35;3.10;;;;;;;;;;6233987;23;20171;-91
2021/03/29 14:53:47;;;;;;;9.88;3.55;;;;;;;;;;6235286;23;20200;-89
2021/03/29 14:56:52;;;;;;;6.97;2.97;;;;;;;;;;6234639;23;20170;-89
2021/03/29 15:00:07;;;;;;;10.98;3.10;;;;;;;;;;6236032;23;20187;-90
2021/03/29 15:03:15;;;;;;;6.57;2.75;;;;;;;;;;6236798;23;20194;-88
2021/03/29 15:06:34;;;;;;;8.07;3.53;;;;;;;;;;6236241;23;20162;-89
2021/03/29 15:09:42;;;;;;;6.28;3.00;;;;;;;;;;6217732;23;20171;-88
2021/03/29 15:12:47;;;;;;;7.68;3.03;;;;;;;;;;6234119;23;20654;-88
2021/03/29 15:15:53;;;;;;;8.68;3.40;;;;;;;;;;6232063;23;20236;-90
2021/03/29 15:18:58;;;;;;;10.60;3.30;;;;;;;;;;6230252;23;20179;-89
2021/03/29 15:22:03;;;;;;;11.63;3.30;;;;;;;;;;6212766;23;20171;-88
2021/03/29 15:25:12;;;;;;;8.50;2.88;;;;;;;;;;6232060;23;20203;-89
2021/03/29 15:28:17;;;;;;;8.75;3.22;;;;;;;;;;6233742;23;20167;-89
2021/03/29 15:34:43;;;;;;;7.13;2.92;;;;;;;;;;6215643;23;20171;-89
2021/03/29 15:37:51;;;;;;;5.75;2.80;;;;;;;;;;6233212;23;20210;-88
2021/03/29 15:44:15;;;;;;;13.20;3.20;;;;;;;;;;6215405;23;20223;-88
2021/03/29 15:47:35;;;;;;;8.20;3.03;;;;;;;;;;6233285;23;20206;-88
2021/03/29 15:50:49;;;;;;;10.63;3.63;;;;;;;;;;6214977;23;20243;-89
2021/03/29 15:53:54;;;;;;;12.85;3.65;;;;;;;;;;6231916;23;20179;-88
2021/03/29 15:57:00;;;;;;;16.85;3.75;;;;;;;;;;6233266;23;20214;-88
2021/03/29 16:00:05;;;;;;;10.82;3.33;;;;;;;;;;6229636;23;20168;-88
2021/03/29 16:03:13;;;;;;;9.93;3.97;;;;;;;;;;6211548;23;20515;-88
2021/03/29 16:06:18;;;;;;;9.82;3.38;;;;;;;;;;6230890;23;20236;-88
2021/03/29 16:09:23;;;;;;;10.80;3.33;;;;;;;;;;6232440;23;20240;-88
2021/03/29 16:12:28;;;;;;;11.02;3.67;;;;;;;;;;6232548;23;20190;-89
2021/03/29 16:15:33;;;;;;;11.80;3.28;;;;;;;;;;6215096;22;20179;-88
2021/03/29 16:18:37;;;;;;;9.68;3.60;;;;;;;;;;6232006;23;20219;-87
2021/03/29 16:21:45;;;;;;;15.80;3.85;;;;;;;;;;6235691;23;20175;-88
2021/03/29 16:24:52;;;;;;;8.90;3.50;;;;;;;;;;6234024;23;20167;-90
2021/03/29 16:27:56;;;;;;;11.18;3.70;;;;;;;;;;6234270;23;20222;-91
2021/03/29 16:31:01;;;;;;;10.75;3.80;;;;;;;;;;6235729;23;20222;-90
2021/03/29 16:34:06;;;;;;;8.05;3.67;;;;;;;;;;6217268;23;20220;-90
2021/03/29 16:37:13;;;;;;;13.35;3.95;;;;;;;;;;6236788;23;20167;-90
2021/03/29 16:40:18;;;;;;;19.25;8.00;;;;;;;;;;6237265;23;20225;-91
2021/03/29 16:43:25;;;;;;;15.07;5.70;;;;;;;;;;6235589;23;20248;-90
2021/03/29 16:46:31;;;;;;;10.13;3.55;;;;;;;;;;6235194;23;20171;-89
2021/03/29 16:49:36;;;;;;;7.00;3.45;;;;;;;;;;6232345;23;20482;-89
2021/03/29 16:52:45;;;;;;;9.82;3.55;;;;;;;;;;6234206;23;20271;-90
2021/03/29 16:55:50;;;;;;;14.05;3.97;;;;;;;;;;6233331;23;20195;-90
2021/03/29 16:59:01;;;;;;;9.90;4.45;;;;;;;;;;6214803;23;20171;-90
2021/03/29 17:02:06;;;;;;;21.58;4.72;;;;;;;;;;6234218;23;20206;-89
2021/03/29 17:05:11;;;;;;;15.55;5.05;;;;;;;;;;6232336;23;20257;-90
2021/03/29 17:08:21;;;;;;;11.73;5.28;;;;;;;;;;6215260;23;20171;-92
2021/03/29 17:11:29;;;;;;;11.63;4.55;;;;;;;;;;6214357;23;20152;-91
2021/03/29 17:14:34;;;;;;;15.40;4.18;;;;;;;;;;6230769;22;20603;-89
2021/03/29 17:17:38;;;;;;;9.98;4.22;;;;;;;;;;6232060;23;20212;-89
2021/03/29 17:20:44;;;;;;;21.50;9.23;;;;;;;;;;6230780;23;20226;-90
2021/03/29 17:23:49;;;;;;;18.27;7.82;;;;;;;;;;6231371;23;20246;-90
2021/03/29 17:26:54;;;;;;;11.38;4.72;;;;;;;;;;6230804;23;20171;-90
2021/03/29 17:29:59;;;;;;;24.40;9.63;;;;;;;;;;6214331;23;20182;-89
2021/03/29 17:33:04;;;;;;;25.75;10.38;;;;;;;;;;6230360;22;20606;-90
2021/03/29 17:36:09;;;;;;;27.13;9.73;;;;;;;;;;6213222;23;20175;-92
2021/03/29 17:39:15;;;;;;;22.45;8.10;;;;;;;;;;6212941;23;20166;-91
2021/03/29 17:42:20;;;;;;;22.85;7.63;;;;;;;;;;6229253;23;20203;-89
2021/03/29 17:45:25;;;;;;;22.02;6.53;;;;;;;;;;6213647;23;20175;-89
2021/03/29 17:48:29;;;;;;;18.75;6.72;;;;;;;;;;6228913;23;20171;-91
2021/03/29 17:51:35;;;;;;;19.05;6.20;;;;;;;;;;6232575;23;20171;-89
2021/03/29 17:54:43;;;;;;;17.73;5.63;;;;;;;;;;6229979;23;20688;-90
2021/03/29 17:57:48;;;;;;;17.20;6.03;;;;;;;;;;6231018;23;20163;-89
2021/03/29 18:00:53;;;;;;;16.73;5.97;;;;;;;;;;6232569;23;20172;-90
2021/03/29 18:03:58;;;;;;;19.95;6.75;;;;;;;;;;6231773;23;20178;-91
2021/03/29 18:07:08;;;;;;;42.92;11.20;;;;;;;;;;6231539;23;20218;-90
2021/03/29 18:10:14;;;;;;;27.92;8.90;;;;;;;;;;6215592;23;20195;-90
2021/03/29 18:13:19;;;;;;;17.98;7.13;;;;;;;;;;6231336;23;20167;-91
2021/03/29 18:16:24;;;;;;;18.55;6.22;;;;;;;;;;6199034;23;20289;-90
2021/03/29 18:19:29;;;;;;;18.80;6.55;;;;;;;;;;6183215;23;20159;-89
2021/03/29 18:22:34;;;;;;;17.58;6.15;;;;;;;;;;6185800;22;20168;-91
2021/03/29 18:25:41;;;;;;;15.73;6.03;;;;;;;;;;6187968;23;20167;-92
2021/03/29 18:28:49;;;;;;;20.40;8.18;;;;;;;;;;6193492;23;20168;-92
2021/03/29 18:31:54;;;;;;;24.17;6.90;;;;;;;;;;6192310;23;20171;-91
2021/03/29 18:35:01;;;;;;;19.30;7.38;;;;;;;;;;6190624;23;20175;-93
2021/03/29 18:38:10;;;;;;;22.27;8.23;;;;;;;;;;6191709;22;20224;-94
2021/03/29 19:28:18;;;;;;;23.38;9.43;;;;;;;;;;6160833;22;20203;31
2021/03/29 19:31:25;;;;;;;19.35;7.43;;;;;;;;;;6129564;23;20202;-87
2021/03/29 19:35:12;;;;;;;20.55;7.32;;;;;;;;;;6125101;23;20178;-91
2021/03/29 19:38:18;;;;;;;24.27;8.50;;;;;;;;;;6125229;23;20176;-90
2021/03/29 19:41:25;;;;;;;22.77;7.85;;;;;;;;;;6124670;23;20640;-92
2021/03/29 19:44:30;;;;;;;25.15;7.95;;;;;;;;;;6123164;23;20197;-91
2021/03/29 19:47:37;;;;;;;30.55;9.65;;;;;;;;;;6123946;23;20196;-92
2021/03/29 19:50:42;;;;;;;29.77;9.43;;;;;;;;;;6121730;23;20177;-91
2021/03/29 19:53:47;;;;;;;20.60;9.23;;;;;;;;;;6122438;23;20177;-92
2021/03/29 19:56:51;;;;;;;17.20;7.20;;;;;;;;;;6122876;23;20170;-92
2021/03/29 19:59:57;;;;;;;18.23;7.30;;;;;;;;;;6123707;23;20222;-92
2021/03/29 20:03:05;;;;;;;17.27;7.03;;;;;;;;;;6124542;23;20216;-90
2021/03/29 20:06:28;;;;;;;17.42;6.30;;;;;;;;;;6123047;23;20177;-91
2021/03/29 20:09:34;;;;;;;17.17;6.60;;;;;;;;;;6125395;23;20241;-91
2021/03/29 20:12:38;;;;;;;23.80;7.03;;;;;;;;;;6126528;23;20217;-90
2021/03/29 20:15:43;;;;;;;20.90;7.07;;;;;;;;;;6126683;23;20176;-91
2021/03/29 20:18:49;;;;;;;16.87;7.10;;;;;;;;;;6123945;23;20194;-89
2021/03/29 20:21:54;;;;;;;12.37;6.10;;;;;;;;;;6123372;23;20173;-91
2021/03/29 20:24:58;;;;;;;23.07;6.00;;;;;;;;;;6127800;23;20193;-91
2021/03/29 20:28:04;;;;;;;13.53;5.90;;;;;;;;;;6125742;23;20174;-91
2021/03/29 20:31:09;;;;;;;15.33;6.23;;;;;;;;;;6095965;23;20173;-91
2021/03/29 20:34:16;;;;;;;15.07;6.53;;;;;;;;;;6096744;23;20218;-89
2021/03/29 20:37:21;;;;;;;17.33;6.60;;;;;;;;;;6112649;23;20218;-91
2021/03/29 20:40:26;;;;;;;18.83;7.60;;;;;;;;;;6093691;23;20189;-90
2021/03/29 20:43:31;;;;;;;16.53;6.40;;;;;;;;;;6097339;23;20218;-90
2021/03/29 20:46:36;;;;;;;18.30;6.40;;;;;;;;;;6095983;23;20225;-90
2021/03/29 20:49:42;;;;;;;14.93;6.43;;;;;;;;;;6094488;23;20178;-89
2021/03/29 20:52:47;;;;;;;13.60;6.17;;;;;;;;;;6096261;23;20146;-90
2021/03/29 20:55:51;;;;;;;18.00;6.77;;;;;;;;;;6094403;23;20166;-89
2021/03/29 20:58:56;;;;;;;16.33;6.17;;;;;;;;;;6093264;23;20201;-91
2021/03/29 21:02:01;;;;;;;14.70;6.47;;;;;;;;;;6094980;23;20238;-90
2021/03/29 21:05:08;;;;;;;17.27;6.67;;;;;;;;;;6095500;23;20666;-92
2021/03/29 21:08:13;;;;;;;18.10;6.70;;;;;;;;;;6095983;23;20194;-89
2021/03/29 21:11:17;;;;;;;14.77;6.53;;;;;;;;;;6093683;23;20193;-90
2021/03/29 21:14:22;;;;;;;19.13;6.97;;;;;;;;;;6094619;23;20177;-89
2021/03/29 22:02:57;;;;;;;16.50;6.90;;;;;;;;;;6195916;22;20181;-89
2021/03/29 22:06:02;;;;;;;23.43;6.83;;;;;;;;;;6180043;23;20196;-91
2021/03/29 22:09:07;;;;;;;19.73;6.83;;;;;;;;;;6181023;23;20176;-89
2021/03/29 22:12:12;;;;;;;17.27;6.30;;;;;;;;;;6197715;23;20176;-90
2021/03/29 22:15:17;;;;;;;17.50;6.30;;;;;;;;;;6179040;23;20720;-90
2021/03/29 22:18:23;;;;;;;16.00;7.13;;;;;;;;;;6178175;23;20602;-89
2021/03/29 22:21:28;;;;;;;15.30;6.50;;;;;;;;;;6177895;23;20196;-89
2021/03/29 22:24:33;;;;;;;12.33;5.80;;;;;;;;;;6179449;23;20219;-89
2021/03/29 22:27:40;;;;;;;17.40;6.53;;;;;;;;;;6180564;23;20183;-89
2021/03/29 22:30:51;;;;;;;16.87;6.77;;;;;;;;;;6179816;23;20196;-88
2021/03/29 22:34:01;;;;;;;23.13;7.00;;;;;;;;;;6178777;23;20620;-89
2021/03/29 22:37:15;;;;;;;16.27;6.53;;;;;;;;;;6178328;23;20172;-90
2021/03/29 22:40:34;;;;;;;15.83;6.97;;;;;;;;;;6179157;23;20200;-90
2021/03/29 22:43:38;;;;;;;15.80;6.97;;;;;;;;;;6178908;23;20191;-90
2021/03/29 22:46:43;;;;;;;17.40;6.73;;;;;;;;;;6178743;23;20167;-90
2021/03/29 22:49:49;;;;;;;14.90;6.50;;;;;;;;;;6179888;23;20247;-88
2021/03/29 22:52:54;;;;;;;15.07;7.00;;;;;;;;;;6181322;22;20200;-91
2021/03/29 22:55:59;;;;;;;15.57;6.93;;;;;;;;;;6180805;23;20176;-89
2021/03/29 22:59:07;;;;;;;15.70;6.97;;;;;;;;;;6179061;23;20479;-89
2021/03/29 23:02:11;;;;;;;19.37;6.97;;;;;;;;;;6189357;23;20235;-90
2021/03/29 23:05:18;;;;;;;18.03;6.63;;;;;;;;;;6194262;23;20176;-89
2021/03/29 23:08:22;;;;;;;18.10;7.17;;;;;;;;;;6197017;23;20219;-90
2021/03/29 23:11:27;;;;;;;14.40;6.47;;;;;;;;;;6197952;23;20171;-90
2021/03/29 23:14:31;;;;;;;13.70;6.27;;;;;;;;;;6197215;23;20172;-90
2021/03/29 23:17:36;;;;;;;16.83;6.40;;;;;;;;;;6196794;23;20168;-89
2021/03/29 23:20:41;;;;;;;16.13;7.33;;;;;;;;;;6197540;23;20176;-90
2021/03/29 23:23:47;;;;;;;16.90;6.50;;;;;;;;;;6198354;23;20179;-89
2021/03/29 23:26:52;;;;;;;18.93;6.77;;;;;;;;;;6197293;23;20686;-89
2021/03/29 23:29:56;;;;;;;21.67;6.90;;;;;;;;;;6197221;23;20199;-89
2021/03/29 23:33:01;;;;;;;16.97;7.37;;;;;;;;;;6197958;23;20230;-90
2021/03/29 23:36:10;;;;;;;17.10;6.70;;;;;;;;;;6196305;23;20183;-89
2021/03/29 23:39:15;;;;;;;14.90;6.53;;;;;;;;;;6196632;23;20176;-90
2021/03/29 23:42:19;;;;;;;14.83;6.60;;;;;;;;;;6198199;23;20164;-89
2021/03/29 23:45:24;;;;;;;12.27;5.83;;;;;;;;;;6197722;23;20163;-88
2021/03/29 23:48:29;;;;;;;15.73;7.17;;;;;;;;;;6198831;23;20223;-89
2021/03/29 23:51:34;;;;;;;14.37;6.80;;;;;;;;;;6198350;23;20242;-91
2021/03/29 23:54:39;;;;;;;19.37;7.07;;;;;;;;;;6199089;23;20172;-90
2021/03/29 23:57:44;;;;;;;21.63;7.10;;;;;;;;;;6198156;23;20167;-90
